createdAt,value
2022-10-23T00:01:42.537Z,9.75
2022-10-23T00:04:19.676Z,8.80
2022-10-23T00:06:48.259Z,8.50
2022-10-23T00:09:19.512Z,9.55
2022-10-23T00:11:48.231Z,8.63
2022-10-23T00:14:16.844Z,9.93
2022-10-23T00:16:44.450Z,9.00
2022-10-23T00:19:12.003Z,9.50
2022-10-23T00:21:39.663Z,10.43
2022-10-23T00:26:38.510Z,8.93
2022-10-23T00:29:05.678Z,11.65
2022-10-23T00:31:33.379Z,10.20
2022-10-23T00:34:01.616Z,10.77
2022-10-23T00:36:28.852Z,9.68
2022-10-23T00:38:56.342Z,10.30
2022-10-23T00:41:28.699Z,11.40
2022-10-23T00:44:07.218Z,10.65
2022-10-23T00:46:34.893Z,9.00
2022-10-23T00:49:03.545Z,9.27
2022-10-23T00:51:37.114Z,9.93
2022-10-23T00:54:23.929Z,9.20
2022-10-23T00:56:58.788Z,9.85
2022-10-23T00:59:26.933Z,9.07
2022-10-23T01:01:54.255Z,9.40
2022-10-23T01:04:22.688Z,10.05
2022-10-23T01:06:58.473Z,9.93
2022-10-23T01:09:40.099Z,10.43
2022-10-23T01:12:12.766Z,9.25
2022-10-23T01:14:46.145Z,9.35
2022-10-23T01:17:18.345Z,9.90
2022-10-23T01:19:56.727Z,9.02
2022-10-23T01:23:01.915Z,9.45
2022-10-23T01:25:56.091Z,9.55
2022-10-23T01:28:52.570Z,9.18
2022-10-23T01:31:30.773Z,9.50
2022-10-23T01:34:06.300Z,9.90
2022-10-23T01:36:34.864Z,9.95
2022-10-23T01:39:11.345Z,8.63
2022-10-23T01:41:50.703Z,9.40
2022-10-23T01:44:36.641Z,10.20
2022-10-23T01:47:07.216Z,10.38
2022-10-23T01:49:36.371Z,11.02
2022-10-23T01:52:08.761Z,10.05
2022-10-23T01:54:39.479Z,10.68
2022-10-23T01:57:10.716Z,10.00
2022-10-23T01:59:44.076Z,10.52
2022-10-23T02:02:13.232Z,11.00
2022-10-23T02:04:53.880Z,10.90
2022-10-23T02:07:21.044Z,11.88
2022-10-23T02:09:48.320Z,11.35
2022-10-23T02:12:38.411Z,10.93
2022-10-23T02:15:14.975Z,11.02
2022-10-23T02:17:45.337Z,10.60
2022-10-23T02:20:28.419Z,11.73
2022-10-23T02:23:06.295Z,11.43
2022-10-23T02:26:02.432Z,11.02
2022-10-23T02:28:52.944Z,11.95
2022-10-23T02:31:22.870Z,13.02
2022-10-23T02:33:53.218Z,12.13
2022-10-23T02:36:20.566Z,12.38
2022-10-23T02:38:47.841Z,11.88
2022-10-23T02:41:30.277Z,12.65
2022-10-23T02:44:34.699Z,13.05
2022-10-23T02:47:41.119Z,12.45
2022-10-23T02:50:31.472Z,13.20
2022-10-23T02:53:27.182Z,12.88
2022-10-23T02:56:11.311Z,13.57
2022-10-23T02:58:45.118Z,14.00
2022-10-23T03:01:20.323Z,12.98
2022-10-23T03:03:59.717Z,13.27
2022-10-23T03:06:26.982Z,14.45
2022-10-23T03:08:58.717Z,14.32
2022-10-23T03:11:26.127Z,15.18
2022-10-23T03:13:53.287Z,13.43
2022-10-23T03:16:20.450Z,14.38
2022-10-23T03:18:47.627Z,14.68
2022-10-23T03:21:14.831Z,15.10
2022-10-23T03:23:41.967Z,14.48
2022-10-23T03:26:09.273Z,15.10
2022-10-23T03:28:36.474Z,15.60
2022-10-23T03:31:04.608Z,15.20
2022-10-23T03:33:32.657Z,14.98
2022-10-23T03:35:59.780Z,16.08
2022-10-23T03:38:27.001Z,16.05
2022-10-23T03:40:54.181Z,16.48
2022-10-23T03:43:21.332Z,15.32
2022-10-23T03:45:48.589Z,15.27
2022-10-23T03:48:15.837Z,16.65
2022-10-23T03:50:42.977Z,16.85
2022-10-23T03:53:10.108Z,16.75
2022-10-23T03:55:37.257Z,17.90
2022-10-23T03:58:04.419Z,19.30
2022-10-23T04:00:31.591Z,18.05
2022-10-23T04:02:58.764Z,19.73
2022-10-23T04:05:25.885Z,17.88
2022-10-23T04:07:53.159Z,19.98
2022-10-23T04:10:20.523Z,20.58
2022-10-23T04:12:47.801Z,18.80
2022-10-23T04:15:15.117Z,21.95
2022-10-23T04:17:42.443Z,20.00
2022-10-23T04:20:10.174Z,22.08
2022-10-23T04:22:37.288Z,21.85
2022-10-23T04:25:04.692Z,20.67
2022-10-23T04:27:32.068Z,21.67
2022-10-23T04:29:59.313Z,21.10
2022-10-23T04:32:26.948Z,22.88
2022-10-23T04:34:54.148Z,23.50
2022-10-23T04:37:21.287Z,22.80
2022-10-23T04:39:48.459Z,22.85
2022-10-23T04:42:15.835Z,23.13
2022-10-23T04:44:43.052Z,23.88
2022-10-23T04:47:10.187Z,23.65
2022-10-23T04:49:37.263Z,22.70
2022-10-23T04:52:04.634Z,23.92
2022-10-23T04:54:37.831Z,24.38
2022-10-23T04:57:05.065Z,24.77
2022-10-23T04:59:32.239Z,33.45
2022-10-23T05:01:59.420Z,27.40
2022-10-23T05:04:26.674Z,23.70
2022-10-23T05:06:53.953Z,28.63
2022-10-23T05:09:22.455Z,23.38
2022-10-23T05:11:49.614Z,23.13
2022-10-23T05:14:20.598Z,23.60
2022-10-23T05:17:03.693Z,23.30
2022-10-23T05:19:37.907Z,22.00
2022-10-23T05:22:06.179Z,21.95
2022-10-23T05:24:33.389Z,21.27
2022-10-23T05:27:00.580Z,20.15
2022-10-23T05:29:27.764Z,20.75
2022-10-23T05:31:58.994Z,20.55
2022-10-23T05:34:27.970Z,21.13
2022-10-23T05:36:55.730Z,21.40
2022-10-23T05:39:23.483Z,19.95
2022-10-23T05:41:51.403Z,20.75
2022-10-23T05:44:18.500Z,20.42
2022-10-23T05:46:45.685Z,23.20
2022-10-23T05:49:12.879Z,21.48
2022-10-23T05:51:40.970Z,21.08
2022-10-23T05:54:08.490Z,30.10
2022-10-23T05:56:37.378Z,26.13
2022-10-23T05:59:05.244Z,27.20
2022-10-23T06:01:32.329Z,27.73
2022-10-23T06:04:03.719Z,30.95
2022-10-23T06:06:31.234Z,25.40
2022-10-23T06:08:58.436Z,26.33
2022-10-23T06:11:25.661Z,27.95
2022-10-23T06:13:52.947Z,26.48
2022-10-23T06:16:23.004Z,24.48
2022-10-23T06:18:50.372Z,24.95
2022-10-23T06:21:17.989Z,22.52
2022-10-23T06:23:46.518Z,19.65
2022-10-23T06:26:15.600Z,23.88
2022-10-23T06:28:43.389Z,20.40
2022-10-23T06:31:13.556Z,25.75
2022-10-23T06:33:41.424Z,22.58
2022-10-23T06:36:10.801Z,21.88
2022-10-23T06:38:40.694Z,29.58
2022-10-23T06:41:17.682Z,21.13
2022-10-23T06:43:47.347Z,17.73
2022-10-23T06:46:14.629Z,18.90
2022-10-23T06:48:42.747Z,18.42
2022-10-23T06:51:12.681Z,19.50
2022-10-23T06:53:40.399Z,35.50
2022-10-23T06:56:09.184Z,17.30
2022-10-23T06:58:37.849Z,22.45
2022-10-23T07:01:07.594Z,28.17
2022-10-23T07:03:35.085Z,24.98
2022-10-23T07:06:04.083Z,25.58
2022-10-23T07:08:31.744Z,20.75
2022-10-23T07:11:02.663Z,24.50
2022-10-23T07:13:29.829Z,19.75
2022-10-23T07:15:57.041Z,22.52
2022-10-23T07:18:24.272Z,18.80
2022-10-23T07:20:58.444Z,20.08
2022-10-23T07:23:25.667Z,17.83
2022-10-23T07:25:52.854Z,18.05
2022-10-23T07:28:20.010Z,21.05
2022-10-23T07:30:57.743Z,21.98
2022-10-23T07:33:24.981Z,31.42
2022-10-23T07:35:52.119Z,24.33
2022-10-23T07:38:19.269Z,30.23
2022-10-23T07:40:46.519Z,23.52
2022-10-23T07:43:13.754Z,21.33
2022-10-23T07:45:41.419Z,18.48
2022-10-23T07:48:08.560Z,19.77
2022-10-23T07:50:38.372Z,20.60
2022-10-23T07:53:05.560Z,22.02
2022-10-23T07:55:32.764Z,20.00
2022-10-23T07:57:59.911Z,16.58
2022-10-23T08:00:27.067Z,19.00
2022-10-23T08:02:54.235Z,20.58
2022-10-23T08:05:21.423Z,15.93
2022-10-23T08:07:48.550Z,17.65
2022-10-23T08:10:15.771Z,15.93
2022-10-23T08:12:43.121Z,14.50
2022-10-23T08:15:10.560Z,14.77
2022-10-23T08:17:39.430Z,14.60
2022-10-23T08:20:07.049Z,15.70
2022-10-23T08:22:36.994Z,17.88
2022-10-23T08:25:04.409Z,17.83
2022-10-23T08:27:31.590Z,16.95
2022-10-23T08:29:58.724Z,16.00
2022-10-23T08:32:30.441Z,15.18
2022-10-23T08:34:57.690Z,15.48
2022-10-23T08:37:24.979Z,15.88
2022-10-23T08:39:53.329Z,19.63
2022-10-23T08:42:23.909Z,18.38
2022-10-23T08:45:05.698Z,19.52
2022-10-23T08:47:55.995Z,16.23
2022-10-23T08:50:43.184Z,17.15
2022-10-23T08:53:19.075Z,18.73
2022-10-23T08:55:54.158Z,13.65
2022-10-23T08:58:32.111Z,16.02
2022-10-23T09:00:59.610Z,15.10
2022-10-23T09:03:27.812Z,13.90
2022-10-23T09:06:12.411Z,15.63
2022-10-23T09:08:57.019Z,14.30
2022-10-23T09:11:49.419Z,14.73
2022-10-23T09:14:35.230Z,15.63
2022-10-23T09:17:28.630Z,19.65
2022-10-23T09:20:43.862Z,16.48
2022-10-23T09:25:39.984Z,15.68
2022-10-23T09:28:07.671Z,18.10
2022-10-23T09:30:42.095Z,24.25
2022-10-23T09:33:23.489Z,24.73
2022-10-23T09:36:02.544Z,14.57
2022-10-23T09:38:48.522Z,15.88
2022-10-23T09:41:36.661Z,16.05
2022-10-23T09:44:21.616Z,15.23
2022-10-23T09:46:54.346Z,18.35
2022-10-23T09:49:28.600Z,13.73
2022-10-23T09:52:22.141Z,15.40
2022-10-23T09:55:02.093Z,25.52
2022-10-23T09:57:41.304Z,46.22
2022-10-23T10:00:15.060Z,36.30
2022-10-23T10:02:57.204Z,29.38
2022-10-23T10:05:34.997Z,23.13
2022-10-23T10:08:34.533Z,47.70
2022-10-23T10:11:20.253Z,28.83
2022-10-23T10:13:50.175Z,27.85
2022-10-23T10:16:32.806Z,24.92
2022-10-23T10:19:21.523Z,27.55
2022-10-23T10:22:09.731Z,16.52
2022-10-23T10:24:50.269Z,22.70
2022-10-23T10:27:38.299Z,24.90
2022-10-23T10:30:21.173Z,26.98
2022-10-23T10:32:54.502Z,51.45
2022-10-23T10:35:27.770Z,49.53
2022-10-23T10:38:03.943Z,53.60
2022-10-23T10:41:15.950Z,19.45
2022-10-23T10:44:01.839Z,55.28
2022-10-23T10:46:35.113Z,19.48
2022-10-23T10:49:13.051Z,20.92
2022-10-23T10:52:02.363Z,25.00
2022-10-23T10:55:10.554Z,24.70
2022-10-23T10:57:43.260Z,45.90
2022-10-23T11:00:17.053Z,32.47
2022-10-23T11:02:48.701Z,20.63
2022-10-23T11:05:25.176Z,21.73
2022-10-23T11:08:07.460Z,25.30
2022-10-23T11:10:39.070Z,20.10
2022-10-23T11:13:06.284Z,17.55
2022-10-23T11:15:41.037Z,25.83
2022-10-23T11:18:16.383Z,19.95
2022-10-23T11:21:01.389Z,19.63
2022-10-23T11:23:47.829Z,40.90
2022-10-23T11:26:41.384Z,20.77
2022-10-23T11:29:30.425Z,33.23
2022-10-23T11:32:06.247Z,19.00
2022-10-23T11:35:20.125Z,17.60
2022-10-23T11:38:01.705Z,33.85
2022-10-23T11:40:29.950Z,23.05
2022-10-23T11:42:57.256Z,19.60
2022-10-23T11:45:42.585Z,22.15
2022-10-23T11:48:15.566Z,23.33
2022-10-23T11:50:45.378Z,25.93
2022-10-23T11:53:31.052Z,19.88
2022-10-23T11:56:12.187Z,19.27
2022-10-23T11:58:45.611Z,19.33
2022-10-23T12:01:32.787Z,20.50
2022-10-23T12:04:02.529Z,18.08
2022-10-23T12:06:42.640Z,18.38
2022-10-23T12:09:46.946Z,17.40
2022-10-23T12:12:28.691Z,24.40
2022-10-23T12:15:16.182Z,16.63
2022-10-23T12:17:45.171Z,37.83
2022-10-23T12:20:12.561Z,19.08
2022-10-23T12:23:00.489Z,16.33
2022-10-23T12:25:27.679Z,10.82
2022-10-23T12:28:24.405Z,14.07
2022-10-23T12:31:06.662Z,14.18
2022-10-23T12:33:50.265Z,11.70
2022-10-23T12:36:24.265Z,10.38
2022-10-23T12:38:51.816Z,7.18
2022-10-23T12:41:29.532Z,7.68
2022-10-23T12:43:59.256Z,7.28
2022-10-23T12:46:29.980Z,6.05
2022-10-23T12:48:58.666Z,5.45
2022-10-23T12:51:33.599Z,3.97
2022-10-23T12:54:02.654Z,5.55
2022-10-23T12:56:36.791Z,5.13
2022-10-23T12:59:05.359Z,2.97
2022-10-23T13:01:35.380Z,3.63
2022-10-23T13:04:12.879Z,2.83
2022-10-23T13:06:40.776Z,4.15
2022-10-23T13:09:23.380Z,2.60
2022-10-23T13:11:52.640Z,3.33
2022-10-23T13:14:43.707Z,3.92
2022-10-23T13:17:12.497Z,2.75
2022-10-23T13:19:39.799Z,4.30
2022-10-23T13:22:25.307Z,4.20
2022-10-23T13:24:52.546Z,3.50
2022-10-23T13:27:31.629Z,9.00
2022-10-23T13:29:58.985Z,8.73
2022-10-23T13:32:30.135Z,3.70
2022-10-23T13:35:10.526Z,3.83
2022-10-23T13:37:48.662Z,4.22
2022-10-23T13:40:25.859Z,5.82
2022-10-23T13:42:55.125Z,6.18
2022-10-23T13:45:24.892Z,6.13
2022-10-23T13:47:52.445Z,5.75
2022-10-23T13:50:20.359Z,6.82
2022-10-23T13:52:47.501Z,13.52
2022-10-23T13:55:33.719Z,4.70
2022-10-23T13:58:01.053Z,5.15
2022-10-23T14:00:28.205Z,7.93
2022-10-23T14:05:27.447Z,4.50
2022-10-23T14:07:54.597Z,4.93
2022-10-23T14:10:24.518Z,5.93
2022-10-23T14:12:55.180Z,5.40
2022-10-23T14:15:22.875Z,5.30
2022-10-23T14:17:50.120Z,5.05
2022-10-23T14:20:19.041Z,6.40
2022-10-23T14:22:46.717Z,4.78
2022-10-23T14:25:14.270Z,4.07
2022-10-23T14:27:41.387Z,7.65
2022-10-23T14:30:09.243Z,8.07
2022-10-23T14:32:36.469Z,5.85
2022-10-23T14:35:04.070Z,6.60
2022-10-23T14:37:31.989Z,4.38
2022-10-23T14:39:59.259Z,3.90
2022-10-23T14:42:31.713Z,5.05
2022-10-23T14:45:02.539Z,5.45
2022-10-23T14:47:30.122Z,5.03
2022-10-23T14:49:57.466Z,4.38
2022-10-23T14:52:25.109Z,4.72
2022-10-23T14:54:55.305Z,5.53
2022-10-23T14:57:22.834Z,4.43
2022-10-23T14:59:50.330Z,4.45
2022-10-23T15:02:18.025Z,5.35
2022-10-23T15:04:45.276Z,4.53
2022-10-23T15:07:12.541Z,4.07
2022-10-23T15:09:39.950Z,4.57
2022-10-23T15:12:07.746Z,4.50
2022-10-23T15:14:35.541Z,4.05
2022-10-23T15:17:03.202Z,4.15
2022-10-23T15:19:30.472Z,4.65
2022-10-23T15:21:57.594Z,4.30
2022-10-23T15:24:25.031Z,4.25
2022-10-23T15:26:52.335Z,4.40
2022-10-23T15:29:20.032Z,4.10
2022-10-23T15:31:48.560Z,4.50
2022-10-23T15:34:25.395Z,14.65
2022-10-23T15:36:53.522Z,6.32
2022-10-23T15:39:24.409Z,5.05
2022-10-23T15:41:54.859Z,4.50
2022-10-23T15:44:24.579Z,6.18
2022-10-23T15:46:52.205Z,6.25
2022-10-23T15:49:19.709Z,7.60
2022-10-23T15:51:47.471Z,5.40
2022-10-23T15:54:17.286Z,4.38
2022-10-23T15:56:45.920Z,5.18
2022-10-23T15:59:13.883Z,4.65
2022-10-23T16:01:41.447Z,4.60
2022-10-23T16:04:08.731Z,4.20
2022-10-23T16:06:35.986Z,3.95
2022-10-23T16:09:03.245Z,4.60
2022-10-23T16:11:34.348Z,4.10
2022-10-23T16:14:03.310Z,4.97
2022-10-23T16:16:31.425Z,4.15
2022-10-23T16:19:02.830Z,4.25
2022-10-23T16:21:34.281Z,4.30
2022-10-23T16:24:03.869Z,4.30
2022-10-23T16:26:31.342Z,3.83
2022-10-23T16:29:03.885Z,3.92
2022-10-23T16:31:32.125Z,4.20
2022-10-23T16:34:01.086Z,3.83
2022-10-23T16:36:28.646Z,3.53
2022-10-23T16:38:55.965Z,4.57
2022-10-23T16:41:23.308Z,4.97
2022-10-23T16:43:50.860Z,4.32
2022-10-23T16:46:23.020Z,4.43
2022-10-23T16:48:53.960Z,4.20
2022-10-23T16:51:24.529Z,4.38
2022-10-23T16:53:53.680Z,4.22
2022-10-23T16:56:23.916Z,4.35
2022-10-23T16:58:51.791Z,4.10
2022-10-23T17:01:21.660Z,4.53
2022-10-23T17:03:51.286Z,4.40
2022-10-23T17:06:21.971Z,4.40
2022-10-23T17:08:49.499Z,4.47
2022-10-23T17:11:23.555Z,4.93
2022-10-23T17:13:59.202Z,4.35
2022-10-23T17:16:29.378Z,4.47
2022-10-23T17:18:57.875Z,3.78
2022-10-23T17:21:25.309Z,4.28
2022-10-23T17:23:53.050Z,4.13
2022-10-23T17:26:22.287Z,3.90
2022-10-23T17:28:49.551Z,4.55
2022-10-23T17:31:28.123Z,4.00
2022-10-23T17:34:02.304Z,3.92
2022-10-23T17:36:31.536Z,3.45
2022-10-23T17:38:58.743Z,4.05
2022-10-23T17:41:26.536Z,4.53
2022-10-23T17:43:59.237Z,4.75
2022-10-23T17:46:27.732Z,3.85
2022-10-23T17:48:58.299Z,3.95
2022-10-23T17:51:27.912Z,4.10
2022-10-23T17:53:56.974Z,4.00
2022-10-23T17:56:27.452Z,3.97
2022-10-23T17:58:56.704Z,3.90
2022-10-23T18:01:25.887Z,3.85
2022-10-23T18:03:54.411Z,3.50
2022-10-23T18:06:28.905Z,4.43
2022-10-23T18:08:57.453Z,3.97
2022-10-23T18:11:30.749Z,4.30
2022-10-23T18:16:27.539Z,3.85
2022-10-23T18:18:55.241Z,3.90
2022-10-23T18:21:24.012Z,4.18
2022-10-23T18:23:51.800Z,3.88
2022-10-23T18:26:22.835Z,4.32
2022-10-23T18:28:51.966Z,4.93
2022-10-23T18:31:20.573Z,4.22
2022-10-23T18:33:48.037Z,4.60
2022-10-23T18:36:22.030Z,3.65
2022-10-23T18:41:17.990Z,4.00
2022-10-23T18:43:45.257Z,4.35
2022-10-23T18:46:14.097Z,4.22
2022-10-23T18:48:42.326Z,4.10
2022-10-23T18:51:18.190Z,4.20
2022-10-23T18:53:48.392Z,4.90
2022-10-23T18:56:21.909Z,4.53
2022-10-23T18:58:57.759Z,4.95
2022-10-23T19:01:27.290Z,4.45
2022-10-23T19:06:30.610Z,4.32
2022-10-23T19:08:58.191Z,4.47
2022-10-23T19:11:27.570Z,3.90
2022-10-23T19:13:55.125Z,4.50
2022-10-23T19:16:29.451Z,4.53
2022-10-23T19:19:03.120Z,4.03
2022-10-23T19:21:36.587Z,4.03
2022-10-23T19:24:08.985Z,3.80
2022-10-23T19:26:38.655Z,3.80
2022-10-23T19:29:08.833Z,4.25
2022-10-23T19:31:36.159Z,3.90
2022-10-23T19:34:03.329Z,4.57
2022-10-23T19:36:32.054Z,4.63
2022-10-23T19:38:59.380Z,4.68
2022-10-23T19:41:26.530Z,6.75
2022-10-23T19:43:53.627Z,10.52
2022-10-23T19:46:20.785Z,8.82
2022-10-23T19:48:48.025Z,11.20
2022-10-23T19:51:15.219Z,6.72
2022-10-23T19:53:42.951Z,4.20
2022-10-23T19:56:12.293Z,3.92
2022-10-23T19:58:39.969Z,3.40
2022-10-23T20:01:16.631Z,5.43
2022-10-23T20:03:49.030Z,4.07
2022-10-23T20:06:19.279Z,4.00
2022-10-23T20:08:46.877Z,3.88
2022-10-23T20:11:23.816Z,4.57
2022-10-23T20:13:52.036Z,4.40
2022-10-23T20:16:31.295Z,4.60
2022-10-23T20:18:58.771Z,3.95
2022-10-23T20:21:26.272Z,3.65
2022-10-23T20:23:53.469Z,3.70
2022-10-23T20:26:23.708Z,3.50
2022-10-23T20:28:54.631Z,3.92
2022-10-23T20:31:23.775Z,3.30
2022-10-23T20:33:51.669Z,3.00
2022-10-23T20:36:26.912Z,3.22
2022-10-23T20:38:54.575Z,2.90
2022-10-23T20:41:22.331Z,3.70
2022-10-23T20:43:49.475Z,3.00
2022-10-23T20:46:16.779Z,3.40
2022-10-23T20:48:45.310Z,3.10
2022-10-23T20:51:16.118Z,3.47
2022-10-23T20:53:44.457Z,3.25
2022-10-23T20:56:19.865Z,4.10
2022-10-23T20:58:47.552Z,3.50
2022-10-23T21:01:19.470Z,11.18
2022-10-23T21:03:51.118Z,5.38
2022-10-23T21:06:19.135Z,3.60
2022-10-23T21:08:46.866Z,3.60
2022-10-23T21:11:16.159Z,3.53
2022-10-23T21:13:44.591Z,3.45
2022-10-23T21:16:26.233Z,3.17
2022-10-23T21:18:57.256Z,3.25
2022-10-23T21:21:25.496Z,3.45
2022-10-23T21:23:54.807Z,3.75
2022-10-23T21:26:23.984Z,3.47
2022-10-23T21:29:00.924Z,3.40
2022-10-23T21:31:39.986Z,3.63
2022-10-23T21:34:07.305Z,3.72
2022-10-23T21:36:48.276Z,3.50
2022-10-23T21:39:21.810Z,3.33
2022-10-23T21:41:49.521Z,3.47
2022-10-23T21:44:16.640Z,3.30
2022-10-23T21:46:44.420Z,3.30
2022-10-23T21:49:12.205Z,3.78
2022-10-23T21:51:39.519Z,3.35
2022-10-23T21:54:08.625Z,3.45
2022-10-23T21:56:43.840Z,3.30
2022-10-23T21:59:13.764Z,3.40
2022-10-23T22:01:44.297Z,3.47
2022-10-23T22:04:12.246Z,3.45
2022-10-23T22:06:40.416Z,3.55
2022-10-23T22:09:08.726Z,3.40
2022-10-23T22:11:36.040Z,3.60
2022-10-23T22:14:03.147Z,3.33
2022-10-23T22:16:30.462Z,3.13
2022-10-23T22:18:57.768Z,2.92
2022-10-23T22:21:27.231Z,3.78
2022-10-23T22:23:56.148Z,3.55
2022-10-23T22:26:35.731Z,3.40
2022-10-23T22:29:16.391Z,3.33
2022-10-23T22:31:45.779Z,3.25
2022-10-23T22:34:28.818Z,3.40
2022-10-23T22:37:09.100Z,3.60
2022-10-23T22:39:36.182Z,3.72
2022-10-23T22:42:03.306Z,3.20
2022-10-23T22:44:30.443Z,3.70
2022-10-23T22:46:57.601Z,3.38
2022-10-23T22:49:24.722Z,3.58
2022-10-23T22:51:51.879Z,3.55
2022-10-23T22:54:19.127Z,3.78
2022-10-23T22:56:46.285Z,3.38
2022-10-23T22:59:13.438Z,3.40
2022-10-23T23:01:43.901Z,3.53
2022-10-23T23:04:36.759Z,3.58
2022-10-23T23:07:00.267Z,3.70
2022-10-23T23:09:27.440Z,3.80
2022-10-23T23:11:54.588Z,3.47
2022-10-23T23:14:24.165Z,3.78
2022-10-23T23:16:52.929Z,4.15
2022-10-23T23:19:20.572Z,3.72
2022-10-23T23:21:47.831Z,3.78
2022-10-23T23:24:15.148Z,3.78
2022-10-23T23:26:42.313Z,3.97
2022-10-23T23:29:09.467Z,3.78
2022-10-23T23:31:36.688Z,4.03
2022-10-23T23:34:03.873Z,4.15
2022-10-23T23:36:31.041Z,4.15
2022-10-23T23:38:58.711Z,4.28
2022-10-23T23:41:27.510Z,4.00
2022-10-23T23:43:57.523Z,3.60
2022-10-23T23:46:25.437Z,3.90
2022-10-23T23:48:52.785Z,4.20
2022-10-23T23:51:25.395Z,4.20
2022-10-23T23:53:53.299Z,4.57
2022-10-23T23:56:21.354Z,4.30
2022-10-23T23:58:48.925Z,3.88
